Time;durP1;ratioP1;P1;durP2;ratioP2;P2;SDS_P1;SDS_P2;PMS_P1;PMS_P2;Temp;Humidity;BMP_temperature;BMP_pressure;BME280_temperature;BME280_humidity;BME280_pressure;Samples;Min_cycle;Max_cycle;Signal;HPM_P1;HPM_P2
2021/07/01 00:00:40;;;;;;;4.28;3.13;;;13.40;96.40;;;;;;5091740;28;20070;-67
2021/07/01 00:03:05;;;;;;;3.30;3.00;;;13.40;96.40;;;;;;5073248;28;20028;-67
2021/07/01 00:05:31;;;;;;;2.78;2.58;;;13.40;96.40;;;;;;5090357;28;20484;-67
2021/07/01 00:07:57;;;;;;;4.50;2.63;;;13.40;96.50;;;;;;5092276;28;20027;-67
2021/07/01 00:10:25;;;;;;;3.20;2.80;;;13.40;96.50;;;;;;5091987;28;20016;-67
2021/07/01 00:12:52;;;;;;;2.90;2.60;;;13.30;96.60;;;;;;5091574;28;20028;-67
2021/07/01 00:15:24;;;;;;;2.53;2.30;;;13.40;96.60;;;;;;5090818;28;20062;-67
2021/07/01 00:17:50;;;;;;;3.97;2.33;;;13.30;96.60;;;;;;5085514;28;20533;-67
2021/07/01 00:20:16;;;;;;;1.85;1.75;;;13.30;96.50;;;;;;5089083;28;20036;-67
2021/07/01 00:22:42;;;;;;;1.90;1.80;;;13.30;96.50;;;;;;5091986;28;20016;-67
2021/07/01 00:25:10;;;;;;;2.10;1.90;;;13.30;96.60;;;;;;5090468;28;20436;-67
2021/07/01 00:27:35;;;;;;;2.30;2.10;;;13.30;96.60;;;;;;5092017;28;20085;-67
2021/07/01 00:30:03;;;;;;;3.55;2.00;;;13.30;96.60;;;;;;5090942;28;20035;-67
2021/07/01 00:32:28;;;;;;;1.50;1.40;;;13.30;96.60;;;;;;5091584;28;20032;-67
2021/07/01 00:34:54;;;;;;;1.70;1.60;;;13.30;96.60;;;;;;5090298;28;20089;-67
2021/07/01 00:37:19;;;;;;;1.58;1.48;;;13.30;96.60;;;;;;5091383;28;20456;-67
2021/07/01 00:39:45;;;;;;;1.60;1.45;;;13.30;96.70;;;;;;5091655;28;20093;-67
2021/07/01 00:42:10;;;;;;;1.35;1.25;;;13.30;96.70;;;;;;5091243;28;20024;-67
2021/07/01 00:44:36;;;;;;;1.63;1.45;;;13.30;96.70;;;;;;5089813;28;20028;-67
2021/07/01 00:47:02;;;;;;;1.35;1.00;;;13.30;96.70;;;;;;5091061;28;20023;-67
2021/07/01 00:49:27;;;;;;;1.30;1.20;;;13.20;96.70;;;;;;5090667;28;20047;-67
2021/07/01 00:51:53;;;;;;;1.95;1.20;;;13.20;96.70;;;;;;5091269;28;20031;-67
2021/07/01 00:54:19;;;;;;;2.95;0.98;;;13.20;96.80;;;;;;5090862;28;20028;-67
2021/07/01 00:56:45;;;;;;;4.78;1.27;;;13.30;96.90;;;;;;5072032;28;20028;-67
2021/07/01 00:59:12;;;;;;;0.93;0.93;;;13.20;96.90;;;;;;5091333;28;20035;-67
2021/07/01 01:01:38;;;;;;;1.00;0.95;;;13.20;96.90;;;;;;5090430;28;20042;-68
2021/07/01 01:04:04;;;;;;;1.77;0.95;;;13.20;96.80;;;;;;5090989;28;20421;-67
2021/07/01 01:06:30;;;;;;;1.10;0.98;;;13.20;96.90;;;;;;5090015;28;20067;-68
2021/07/01 01:08:57;;;;;;;1.00;0.70;;;13.20;96.90;;;;;;5090885;28;20052;-67
2021/07/01 01:11:26;;;;;;;0.70;0.70;;;13.20;97.00;;;;;;5072999;28;20031;-68
2021/07/01 01:13:53;;;;;;;0.70;0.70;;;13.20;97.00;;;;;;5090511;28;20073;-67
2021/07/01 01:16:19;;;;;;;1.27;0.80;;;13.10;97.00;;;;;;5084075;28;20046;-67
2021/07/01 01:18:45;;;;;;;0.95;0.80;;;13.20;97.10;;;;;;5088380;28;20468;-67
2021/07/01 01:21:15;;;;;;;2.58;0.77;;;13.10;97.00;;;;;;5090876;28;20103;-67
2021/07/01 01:23:41;;;;;;;0.85;0.85;;;13.10;97.10;;;;;;5090376;28;20503;-67
2021/07/01 01:26:07;;;;;;;0.70;0.70;;;13.10;97.00;;;;;;5069661;28;20064;-67
2021/07/01 01:28:35;;;;;;;0.80;0.80;;;13.20;97.20;;;;;;5070727;28;20029;-67
2021/07/01 01:31:01;;;;;;;1.48;0.93;;;13.20;97.10;;;;;;5071126;28;20429;-67
2021/07/01 01:33:26;;;;;;;0.90;0.90;;;13.20;97.20;;;;;;5090771;28;20032;-67
2021/07/01 01:35:52;;;;;;;1.20;1.10;;;13.20;97.20;;;;;;5089730;28;20437;-68
2021/07/01 01:38:18;;;;;;;0.70;0.70;;;13.10;97.20;;;;;;5090403;28;20076;-67
2021/07/01 01:40:47;;;;;;;1.05;0.80;;;13.20;97.20;;;;;;5090642;28;20024;-67
2021/07/01 01:43:17;;;;;;;2.10;1.02;;;13.20;97.20;;;;;;5090330;28;20150;-67
2021/07/01 01:45:43;;;;;;;1.15;0.73;;;13.10;97.20;;;;;;5089581;28;20020;-67
2021/07/01 01:48:09;;;;;;;1.00;1.00;;;13.10;97.20;;;;;;5089853;28;20043;-67
2021/07/01 01:50:35;;;;;;;1.23;1.13;;;13.20;97.30;;;;;;5089906;28;20099;-67
2021/07/01 01:53:01;;;;;;;1.10;1.10;;;13.10;97.30;;;;;;5090331;28;20154;-67
2021/07/01 01:55:27;;;;;;;1.50;1.40;;;13.20;97.30;;;;;;5089247;28;20447;-67
2021/07/01 01:57:53;;;;;;;1.60;1.40;;;13.10;97.30;;;;;;5090458;28;20061;-67
2021/07/01 02:00:24;;;;;;;1.50;1.40;;;13.20;97.30;;;;;;5090060;28;20034;-68
2021/07/01 02:02:50;;;;;;;3.00;1.60;;;13.10;97.40;;;;;;5089943;28;20021;-67
2021/07/01 02:05:16;;;;;;;4.00;1.55;;;13.20;97.40;;;;;;5089304;28;20077;-67
2021/07/01 02:07:42;;;;;;;2.38;1.67;;;13.20;97.50;;;;;;5089690;28;20480;-67
2021/07/01 02:10:21;;;;;;;4.93;2.15;;;13.20;97.40;;;;;;5090492;28;20028;-67
2021/07/01 02:12:48;;;;;;;3.03;2.30;;;13.20;97.50;;;;;;5089520;28;20434;-67
2021/07/01 02:15:16;;;;;;;3.15;2.65;;;13.20;97.40;;;;;;5071142;28;20392;-68
2021/07/01 02:17:42;;;;;;;2.85;2.55;;;13.10;97.30;;;;;;5084371;28;20008;-67
2021/07/01 02:20:11;;;;;;;3.95;3.00;;;13.20;97.40;;;;;;5089208;28;20452;-67
2021/07/01 02:22:38;;;;;;;4.20;3.20;;;13.10;97.40;;;;;;5089847;28;20028;-67
2021/07/01 02:25:05;;;;;;;3.75;3.03;;;13.10;97.40;;;;;;5088828;28;20020;-67
2021/07/01 02:27:31;;;;;;;4.97;3.13;;;13.10;97.40;;;;;;5091630;28;20032;-68
2021/07/01 02:29:56;;;;;;;4.53;3.28;;;13.10;97.40;;;;;;5076223;28;20115;-67
2021/07/01 02:32:22;;;;;;;5.20;3.72;;;13.20;97.50;;;;;;5093393;28;20031;-67
2021/07/01 02:34:48;;;;;;;6.32;3.90;;;13.20;97.40;;;;;;5093065;28;20115;-67
2021/07/01 02:37:14;;;;;;;5.25;3.72;;;13.10;97.30;;;;;;5075187;28;20029;-68
2021/07/01 02:39:40;;;;;;;6.25;4.13;;;13.10;97.30;;;;;;5093908;28;20534;-67
2021/07/01 02:42:06;;;;;;;4.15;3.72;;;13.10;97.40;;;;;;5093737;28;20032;-67
2021/07/01 02:44:33;;;;;;;6.20;3.80;;;13.10;97.40;;;;;;5074623;28;20046;-67
2021/07/01 02:46:58;;;;;;;6.20;4.70;;;13.10;97.40;;;;;;5074457;28;20606;-67
2021/07/01 02:49:24;;;;;;;6.78;4.65;;;13.00;97.40;;;;;;5093056;28;20036;-67
2021/07/01 02:51:52;;;;;;;6.68;5.03;;;13.10;97.40;;;;;;5093790;28;20120;-67
2021/07/01 02:54:18;;;;;;;11.15;5.80;;;13.00;97.50;;;;;;5093083;28;20027;-67
2021/07/01 02:56:43;;;;;;;7.18;5.63;;;13.00;97.50;;;;;;5092192;28;20484;-67
2021/07/01 02:59:16;;;;;;;7.75;5.60;;;13.10;97.60;;;;;;5093505;28;20109;-67
2021/07/01 03:01:43;;;;;;;8.55;6.38;;;13.00;97.60;;;;;;5092673;28;20031;-67
2021/07/01 03:04:09;;;;;;;9.30;6.63;;;13.10;97.60;;;;;;5093051;28;20480;-67
2021/07/01 03:06:35;;;;;;;8.23;6.50;;;13.10;97.50;;;;;;5092710;28;20106;-67
2021/07/01 03:09:02;;;;;;;8.23;6.47;;;13.10;97.50;;;;;;5092249;28;20020;-68
2021/07/01 03:11:28;;;;;;;11.45;7.32;;;13.10;97.50;;;;;;5093403;28;20028;-67
2021/07/01 03:13:54;;;;;;;14.05;8.13;;;13.10;97.50;;;;;;5073696;28;20012;-67
2021/07/01 03:16:20;;;;;;;10.23;7.07;;;13.00;97.50;;;;;;5086762;28;20017;-67
2021/07/01 03:18:47;;;;;;;11.27;7.47;;;13.10;97.50;;;;;;5073628;28;20115;-68
2021/07/01 03:21:13;;;;;;;10.73;7.90;;;13.00;97.60;;;;;;5073779;28;20064;-67
2021/07/01 03:23:39;;;;;;;11.15;7.53;;;13.10;97.60;;;;;;5092781;28;20117;-67
2021/07/01 03:26:05;;;;;;;10.45;7.03;;;13.10;97.60;;;;;;5091320;28;20097;-67
2021/07/01 03:28:30;;;;;;;13.77;8.15;;;13.10;97.60;;;;;;5092899;28;20529;-67
2021/07/01 03:30:56;;;;;;;14.30;8.43;;;13.10;97.60;;;;;;5074321;28;20028;-67
2021/07/01 03:33:21;;;;;;;13.27;7.90;;;13.10;97.50;;;;;;5091993;28;20028;-67
2021/07/01 03:35:47;;;;;;;12.25;8.30;;;13.10;97.50;;;;;;5091034;28;20020;-67
2021/07/01 03:38:13;;;;;;;13.00;8.65;;;13.10;97.60;;;;;;5091866;28;20055;-67
2021/07/01 03:40:38;;;;;;;11.57;8.68;;;13.10;97.60;;;;;;5092394;28;20070;-67
2021/07/01 03:43:04;;;;;;;10.73;8.07;;;13.10;97.50;;;;;;5092946;28;20024;-68
2021/07/01 03:45:30;;;;;;;11.55;8.77;;;13.10;97.50;;;;;;5091030;28;20062;-67
2021/07/01 03:47:55;;;;;;;11.93;8.68;;;13.20;97.50;;;;;;5104132;22;20044;-68
2021/07/01 03:50:21;;;;;;;11.70;9.10;;;13.10;97.50;;;;;;5082890;28;20407;-68
2021/07/01 03:52:46;;;;;;;13.50;8.52;;;13.10;97.50;;;;;;5074360;28;20020;-68
2021/07/01 03:55:12;;;;;;;10.68;8.50;;;13.10;97.50;;;;;;5098657;28;20068;-68
2021/07/01 03:57:38;;;;;;;11.25;8.07;;;13.10;97.50;;;;;;5092154;28;20039;-68
2021/07/01 04:00:06;;;;;;;12.95;8.40;;;13.10;97.50;;;;;;5092303;28;20051;-68
2021/07/01 04:02:32;;;;;;;12.52;8.57;;;13.10;97.40;;;;;;5091728;28;20576;-68
2021/07/01 04:04:58;;;;;;;14.57;8.82;;;13.10;97.50;;;;;;5091478;28;20056;-68
2021/07/01 04:07:23;;;;;;;11.90;7.80;;;13.10;97.50;;;;;;5092007;28;20107;-68
2021/07/01 04:09:49;;;;;;;13.00;8.55;;;13.10;97.40;;;;;;5091882;28;20035;-68
2021/07/01 04:12:14;;;;;;;13.25;8.90;;;13.10;97.40;;;;;;5092330;28;20024;-68
2021/07/01 04:14:40;;;;;;;12.43;8.52;;;13.10;97.50;;;;;;5086899;28;20373;-68
2021/07/01 04:17:05;;;;;;;15.13;8.35;;;13.10;97.40;;;;;;5086391;28;20166;-68
2021/07/01 04:19:31;;;;;;;13.63;9.00;;;13.10;97.40;;;;;;5091159;28;20043;-68
2021/07/01 04:21:57;;;;;;;15.75;9.45;;;13.10;97.50;;;;;;5091919;28;20016;-68
2021/07/01 04:24:22;;;;;;;13.75;9.05;;;13.10;97.50;;;;;;5091578;28;20031;-68
2021/07/01 04:26:48;;;;;;;12.75;9.15;;;13.10;97.40;;;;;;5090735;28;20437;-68
2021/07/01 04:29:14;;;;;;;13.13;9.90;;;13.10;97.40;;;;;;5091209;28;20059;-69
2021/07/01 04:31:39;;;;;;;13.60;9.60;;;13.10;97.40;;;;;;5091717;28;20093;-68
2021/07/01 04:34:06;;;;;;;13.20;9.18;;;13.10;97.40;;;;;;5091203;28;20028;-68
2021/07/01 04:36:33;;;;;;;14.35;9.50;;;13.10;97.40;;;;;;5091039;28;20047;-68
2021/07/01 04:38:59;;;;;;;14.50;9.70;;;13.10;97.40;;;;;;5090998;28;20468;-67
2021/07/01 04:41:24;;;;;;;18.40;10.07;;;13.10;97.50;;;;;;5091553;28;20056;-67
2021/07/01 04:43:50;;;;;;;12.82;9.70;;;13.10;97.50;;;;;;5091324;28;20427;-67
2021/07/01 04:46:16;;;;;;;13.50;9.23;;;13.20;97.50;;;;;;5090849;28;20088;-67
2021/07/01 04:48:42;;;;;;;13.57;9.95;;;13.20;97.50;;;;;;5104124;28;20031;-69
2021/07/01 04:51:08;;;;;;;11.00;8.90;;;13.20;97.50;;;;;;5108908;28;20020;-67
2021/07/01 04:53:33;;;;;;;15.20;9.30;;;13.20;97.50;;;;;;5091782;28;20535;-70
2021/07/01 04:55:59;;;;;;;12.75;8.65;;;13.20;97.50;;;;;;5089792;28;20027;-66
2021/07/01 04:58:24;;;;;;;12.32;8.32;;;13.20;97.50;;;;;;5091173;28;20026;-66
2021/07/01 05:00:50;;;;;;;12.10;8.82;;;13.20;97.50;;;;;;5091471;28;20036;-67
2021/07/01 05:03:16;;;;;;;9.73;7.28;;;13.20;97.40;;;;;;5090758;28;20024;-69
2021/07/01 05:05:41;;;;;;;11.75;8.15;;;13.20;97.50;;;;;;5090438;28;20392;-66
2021/07/01 05:08:07;;;;;;;12.10;7.85;;;13.20;97.50;;;;;;5091131;28;20529;-67
2021/07/01 05:10:34;;;;;;;12.98;9.55;;;13.20;97.40;;;;;;5091326;28;20537;-67
2021/07/01 05:12:59;;;;;;;13.55;9.40;;;13.20;97.40;;;;;;5090840;28;20032;-66
2021/07/01 05:15:25;;;;;;;12.35;8.25;;;13.20;97.40;;;;;;5089856;28;20080;-67
2021/07/01 05:17:51;;;;;;;10.45;7.80;;;13.20;97.40;;;;;;5085045;28;20051;-66
2021/07/01 05:20:16;;;;;;;9.23;6.78;;;13.30;97.40;;;;;;5088445;28;20082;-67
2021/07/01 05:22:42;;;;;;;8.63;6.85;;;13.20;97.40;;;;;;5091166;28;20028;-70
2021/07/01 05:25:08;;;;;;;13.23;8.02;;;13.30;97.40;;;;;;5088600;28;20072;-66
2021/07/01 05:27:34;;;;;;;10.77;8.30;;;13.20;97.50;;;;;;5089681;28;20680;-66
2021/07/01 05:30:00;;;;;;;7.57;6.13;;;13.30;97.50;;;;;;5091424;28;20028;-67
2021/07/01 05:32:25;;;;;;;8.38;6.22;;;13.30;97.40;;;;;;5089983;28;20035;-67
2021/07/01 05:34:51;;;;;;;7.82;6.65;;;13.30;97.40;;;;;;5071408;28;20095;-67
2021/07/01 05:37:17;;;;;;;7.20;5.80;;;13.30;97.40;;;;;;5076533;28;20032;-70
2021/07/01 05:39:43;;;;;;;7.20;5.78;;;13.40;97.40;;;;;;5091179;28;20024;-69
2021/07/01 05:42:08;;;;;;;7.97;6.07;;;13.40;97.40;;;;;;5072863;28;20028;-66
2021/07/01 05:44:34;;;;;;;12.95;7.55;;;13.40;97.40;;;;;;5090176;28;20036;-68
2021/07/01 05:46:59;;;;;;;7.68;5.80;;;13.40;97.50;;;;;;5090157;28;20028;-67
2021/07/01 05:49:25;;;;;;;6.70;5.90;;;13.40;97.40;;;;;;5108900;28;20043;-69
2021/07/01 05:51:55;;;;;;;6.40;5.20;;;13.40;97.40;;;;;;5110343;28;20506;-66
2021/07/01 05:54:30;;;;;;;7.43;5.60;;;13.40;97.40;;;;;;5090889;28;20028;-70
2021/07/01 05:56:56;;;;;;;6.50;5.30;;;13.40;97.40;;;;;;5089713;28;20179;-66
2021/07/01 05:59:21;;;;;;;6.03;5.28;;;13.30;97.40;;;;;;5072925;28;20107;-67
2021/07/01 06:01:47;;;;;;;7.55;5.65;;;13.40;97.40;;;;;;5070654;28;20526;-70
2021/07/01 06:04:13;;;;;;;5.85;5.22;;;13.40;97.50;;;;;;5094418;28;20028;-71
2021/07/01 06:06:44;;;;;;;5.75;5.05;;;13.40;97.40;;;;;;5074426;28;20077;-69
2021/07/01 06:09:12;;;;;;;6.35;5.10;;;13.40;97.50;;;;;;5094054;28;20099;-67
2021/07/01 06:11:37;;;;;;;6.38;4.65;;;13.40;97.40;;;;;;5084402;28;20376;-68
2021/07/01 06:14:05;;;;;;;8.07;5.53;;;13.40;97.40;;;;;;5081194;28;20027;-67
2021/07/01 06:16:33;;;;;;;6.00;4.80;;;13.40;97.40;;;;;;5092179;28;20082;-67
2021/07/01 06:19:01;;;;;;;6.70;4.55;;;13.50;97.40;;;;;;5078747;28;20059;-67
2021/07/01 06:21:28;;;;;;;8.00;5.10;;;13.40;97.40;;;;;;5072479;28;20024;-66
2021/07/01 06:23:54;;;;;;;6.15;5.03;;;13.40;97.40;;;;;;5094843;28;20023;-67
2021/07/01 06:26:26;;;;;;;5.38;4.57;;;13.50;97.50;;;;;;5089371;28;20095;-70
2021/07/01 06:28:52;;;;;;;6.97;4.95;;;13.50;97.50;;;;;;5081872;28;20103;-69
2021/07/01 06:31:18;;;;;;;6.20;5.22;;;13.50;97.40;;;;;;5093298;28;20149;-68
2021/07/01 06:33:45;;;;;;;8.50;6.40;;;13.60;97.40;;;;;;5094202;28;20063;-66
2021/07/01 06:36:12;;;;;;;8.32;4.75;;;13.60;97.40;;;;;;5074846;28;20480;-67
2021/07/01 06:38:42;;;;;;;6.53;4.80;;;13.70;97.50;;;;;;5073919;28;20050;-66
2021/07/01 06:41:09;;;;;;;6.93;5.47;;;13.70;97.40;;;;;;5094127;28;20383;-66
2021/07/01 06:43:35;;;;;;;6.18;4.75;;;13.70;97.40;;;;;;5093526;28;20103;-68
2021/07/01 06:46:03;;;;;;;6.85;5.05;;;13.70;97.40;;;;;;5093254;28;20024;-69
2021/07/01 06:48:30;;;;;;;7.00;4.45;;;13.70;97.40;;;;;;5059066;28;20033;-67
2021/07/01 06:50:58;;;;;;;8.60;5.10;;;13.70;97.30;;;;;;5078603;28;20032;-66
2021/07/01 06:53:26;;;;;;;6.10;4.60;;;13.70;97.30;;;;;;5075782;28;20032;-66
2021/07/01 06:55:52;;;;;;;6.05;4.30;;;13.70;97.30;;;;;;5092195;28;20032;-67
2021/07/01 06:58:19;;;;;;;5.05;3.92;;;13.80;97.40;;;;;;5093892;28;20541;-66
2021/07/01 07:00:45;;;;;;;6.07;4.22;;;13.80;97.40;;;;;;5068961;28;20028;-68
2021/07/01 07:03:17;;;;;;;6.18;4.00;;;13.80;97.40;;;;;;5092423;28;20032;-67
2021/07/01 07:05:50;;;;;;;3.78;3.47;;;13.80;97.40;;;;;;5092254;28;20028;-66
2021/07/01 07:08:16;;;;;;;4.18;2.80;;;13.90;97.60;;;;;;5091260;28;20028;-66
2021/07/01 07:10:43;;;;;;;3.20;2.90;;;14.00;97.30;;;;;;5075092;28;20399;-67
2021/07/01 07:13:10;;;;;;;3.60;3.30;;;14.00;97.30;;;;;;5074824;28;20045;-69
2021/07/01 07:15:36;;;;;;;4.50;2.60;;;14.00;97.20;;;;;;5086134;28;20059;-67
2021/07/01 07:18:15;;;;;;;4.95;3.28;;;14.10;97.20;;;;;;5080261;28;20066;-66
2021/07/01 07:20:43;;;;;;;2.53;2.33;;;14.10;97.30;;;;;;5094345;28;20103;-66
2021/07/01 07:23:12;;;;;;;4.53;2.75;;;14.10;97.10;;;;;;5084832;28;20032;-73
2021/07/01 07:25:39;;;;;;;2.95;2.70;;;14.00;96.90;;;;;;5092180;28;20107;-74
2021/07/01 07:28:06;;;;;;;2.72;2.53;;;14.00;97.00;;;;;;5093472;28;20543;-70
2021/07/01 07:30:33;;;;;;;3.25;2.95;;;14.00;97.00;;;;;;5090939;28;20514;-67
2021/07/01 07:33:03;;;;;;;5.35;3.08;;;13.90;97.00;;;;;;5085056;28;20455;-66
2021/07/01 07:35:28;;;;;;;4.40;3.40;;;13.80;97.00;;;;;;5087032;28;20077;-70
2021/07/01 07:37:54;;;;;;;4.63;3.80;;;13.80;97.10;;;;;;5085905;28;20020;-69
2021/07/01 07:40:20;;;;;;;4.78;3.20;;;13.80;97.10;;;;;;5092531;28;20106;-70
2021/07/01 07:42:46;;;;;;;3.33;3.03;;;13.70;97.10;;;;;;5073181;28;20055;-66
2021/07/01 07:45:14;;;;;;;3.05;2.75;;;13.70;97.20;;;;;;5090725;28;20555;-67
2021/07/01 07:47:40;;;;;;;4.43;2.90;;;13.70;97.30;;;;;;5092119;28;20100;-66
2021/07/01 07:50:08;;;;;;;22.52;4.88;;;13.70;97.30;;;;;;5091052;28;20028;-66
2021/07/01 07:52:34;;;;;;;4.55;3.17;;;13.80;97.40;;;;;;5090713;28;20040;-67
2021/07/01 07:55:04;;;;;;;7.30;4.07;;;13.80;97.50;;;;;;5073609;28;20536;-70
2021/07/01 07:57:31;;;;;;;6.35;3.30;;;13.80;97.40;;;;;;5084132;28;20361;-66
2021/07/01 07:59:58;;;;;;;7.25;3.33;;;13.80;97.40;;;;;;5072335;28;20031;-70
2021/07/01 08:02:32;;;;;;;2.55;2.10;;;13.80;97.30;;;;;;5079730;28;20103;-68
2021/07/01 08:05:00;;;;;;;3.25;2.55;;;13.80;97.40;;;;;;5085738;28;20055;-66
2021/07/01 08:07:26;;;;;;;2.90;2.15;;;13.80;97.40;;;;;;5103547;28;20553;-67
2021/07/01 08:09:52;;;;;;;2.05;1.90;;;13.80;97.40;;;;;;5092678;28;20109;-66
2021/07/01 08:12:19;;;;;;;4.18;3.08;;;13.80;97.50;;;;;;5091840;28;20063;-66
2021/07/01 08:14:45;;;;;;;2.60;2.25;;;13.80;97.60;;;;;;5091617;28;20099;-68
2021/07/01 08:17:14;;;;;;;2.00;1.80;;;13.80;97.50;;;;;;5091140;28;20054;-70
2021/07/01 08:19:40;;;;;;;2.72;1.70;;;13.80;97.60;;;;;;5091891;28;20479;-66
2021/07/01 08:22:06;;;;;;;2.72;1.90;;;13.80;97.60;;;;;;5091271;28;20577;-67
2021/07/01 08:24:33;;;;;;;2.28;2.08;;;13.80;97.60;;;;;;5090726;28;20024;-66
2021/07/01 08:27:00;;;;;;;2.80;2.15;;;13.90;97.70;;;;;;5091665;28;20071;-69
2021/07/01 08:29:27;;;;;;;3.28;2.97;;;14.00;97.70;;;;;;5091658;28;20034;-68
2021/07/01 08:31:53;;;;;;;5.20;3.50;;;14.00;97.70;;;;;;5091887;28;20115;-65
2021/07/01 08:34:22;;;;;;;4.10;3.70;;;14.10;97.70;;;;;;5091648;28;20107;-67
2021/07/01 08:36:48;;;;;;;5.03;4.40;;;14.20;97.70;;;;;;5087329;28;20016;-67
2021/07/01 08:39:14;;;;;;;6.25;4.82;;;14.20;97.60;;;;;;5091617;28;20107;-66
2021/07/01 08:41:43;;;;;;;6.45;4.85;;;14.30;97.60;;;;;;5091652;28;20099;-67
2021/07/01 08:44:17;;;;;;;6.47;4.40;;;14.30;97.90;;;;;;5091867;28;20063;-66
2021/07/01 08:46:47;;;;;;;5.32;4.53;;;14.40;97.70;;;;;;5090374;28;20028;-66
2021/07/01 08:49:37;;;;;;;10.18;5.82;;;14.40;97.60;;;;;;5073078;28;20039;-66
2021/07/01 08:52:05;;;;;;;5.95;4.90;;;14.50;97.50;;;;;;5091576;28;20020;-66
2021/07/01 08:54:33;;;;;;;8.40;3.85;;;14.50;97.40;;;;;;5090184;28;20040;-66
2021/07/01 08:57:00;;;;;;;6.00;3.67;;;14.40;97.20;;;;;;5083211;28;20028;-66
2021/07/01 08:59:36;;;;;;;7.95;4.40;;;14.50;97.20;;;;;;5090808;28;20495;-71
2021/07/01 09:02:02;;;;;;;5.20;3.67;;;14.50;97.30;;;;;;5091560;28;20486;-67
2021/07/01 09:04:47;;;;;;;5.05;4.10;;;14.50;97.20;;;;;;5091186;28;20024;-70
2021/07/01 09:07:19;;;;;;;6.22;4.28;;;14.50;97.20;;;;;;5089458;28;20174;-67
2021/07/01 09:09:55;;;;;;;6.75;4.20;;;14.50;97.10;;;;;;5091700;28;20173;-66
2021/07/01 09:12:24;;;;;;;5.88;4.32;;;14.50;97.20;;;;;;5089773;28;20118;-66
2021/07/01 09:14:56;;;;;;;4.25;3.60;;;14.60;97.20;;;;;;5089937;28;20043;-71
2021/07/01 09:17:25;;;;;;;4.50;3.23;;;14.70;97.20;;;;;;5084797;28;20063;-66
2021/07/01 09:19:54;;;;;;;5.60;3.53;;;14.70;97.00;;;;;;5090470;28;20098;-67
2021/07/01 09:22:22;;;;;;;5.13;3.85;;;14.80;96.90;;;;;;5091171;28;20027;-67
2021/07/01 09:24:52;;;;;;;6.03;3.42;;;14.80;96.70;;;;;;5089481;28;20024;-67
2021/07/01 09:27:18;;;;;;;6.93;3.75;;;14.80;96.70;;;;;;5091398;28;20031;-66
2021/07/01 09:29:46;;;;;;;4.60;3.30;;;14.80;96.70;;;;;;5089988;28;20091;-66
2021/07/01 09:32:14;;;;;;;3.63;3.17;;;14.90;96.60;;;;;;5091221;28;20430;-66
2021/07/01 09:34:41;;;;;;;4.65;4.13;;;14.90;96.50;;;;;;5089229;28;20032;-67
2021/07/01 09:37:07;;;;;;;3.45;3.03;;;15.00;96.40;;;;;;5098571;28;20027;-67
2021/07/01 09:39:33;;;;;;;6.18;3.15;;;14.90;96.30;;;;;;5090665;28;20032;-66
2021/07/01 09:42:01;;;;;;;3.13;2.83;;;14.90;96.30;;;;;;5085729;28;20092;-69
2021/07/01 09:44:29;;;;;;;4.28;3.10;;;15.00;96.30;;;;;;5089544;28;20020;-70
2021/07/01 09:49:33;;;;;;;2.80;2.60;;;15.00;96.10;;;;;;5146961;22;20040;-67
2021/07/01 09:52:11;;;;;;;4.22;3.35;;;15.00;96.10;;;;;;5089484;28;20047;-67
2021/07/01 09:54:39;;;;;;;3.25;2.95;;;15.10;96.20;;;;;;5075953;28;20379;-67
2021/07/01 09:57:16;;;;;;;3.50;3.13;;;15.10;96.10;;;;;;5090606;28;20051;-66
2021/07/01 09:59:54;;;;;;;3.40;3.10;;;15.20;96.00;;;;;;5073284;28;20150;-67
2021/07/01 10:02:21;;;;;;;5.28;3.10;;;15.20;95.80;;;;;;5070513;28;20028;-67
2021/07/01 10:04:47;;;;;;;3.90;3.25;;;15.10;95.80;;;;;;5088845;28;20020;-66
2021/07/01 10:07:20;;;;;;;5.63;3.70;;;15.20;96.00;;;;;;5088936;28;20418;-67
2021/07/01 10:09:50;;;;;;;4.88;3.22;;;15.20;95.90;;;;;;5089910;28;20127;-67
2021/07/01 10:12:21;;;;;;;3.38;3.08;;;15.20;95.70;;;;;;5052212;28;20092;-67
2021/07/01 10:14:48;;;;;;;4.00;3.40;;;15.20;95.60;;;;;;5069367;28;20082;-67
2021/07/01 10:17:16;;;;;;;3.42;3.10;;;15.10;95.60;;;;;;5069321;28;20028;-67
2021/07/01 10:19:42;;;;;;;4.03;3.30;;;15.20;95.70;;;;;;5089810;28;20024;-67
2021/07/01 10:22:11;;;;;;;3.97;2.75;;;15.20;95.70;;;;;;5089172;28;20473;-67
2021/07/01 10:24:55;;;;;;;3.13;2.83;;;15.30;95.60;;;;;;5087660;28;20221;-67
2021/07/01 10:27:40;;;;;;;3.20;2.90;;;15.40;95.50;;;;;;5089682;28;20073;-67
2021/07/01 10:30:22;;;;;;;3.85;2.67;;;15.40;95.40;;;;;;5090482;28;20055;-67
2021/07/01 10:32:54;;;;;;;2.95;2.65;;;15.50;95.30;;;;;;5088636;28;20024;-67
2021/07/01 10:35:29;;;;;;;2.97;2.35;;;15.50;95.30;;;;;;5076289;28;20024;-67
2021/07/01 10:38:08;;;;;;;4.53;2.53;;;15.50;95.20;;;;;;5071890;28;20027;-68
2021/07/01 10:40:46;;;;;;;3.80;2.05;;;15.60;95.20;;;;;;5089822;28;20566;-67
2021/07/01 10:43:15;;;;;;;2.20;1.90;;;15.60;95.20;;;;;;5067579;28;20100;-67
2021/07/01 10:45:58;;;;;;;2.10;1.95;;;15.80;95.30;;;;;;5096925;28;20081;-67
2021/07/01 10:48:25;;;;;;;1.98;1.67;;;15.90;95.20;;;;;;5072948;28;20032;-67
2021/07/01 10:50:53;;;;;;;1.63;1.52;;;16.00;95.10;;;;;;5093800;28;20749;-67
2021/07/01 10:53:30;;;;;;;1.30;1.20;;;16.10;94.80;;;;;;5093533;28;20034;-67
2021/07/01 10:56:07;;;;;;;1.30;1.20;;;16.20;94.60;;;;;;5074880;28;20034;-67
2021/07/01 10:58:34;;;;;;;1.33;1.23;;;16.20;94.50;;;;;;5093409;28;20055;-67
2021/07/01 11:01:01;;;;;;;1.88;1.50;;;16.10;94.40;;;;;;5093202;28;20040;-67
2021/07/01 11:03:30;;;;;;;1.40;1.30;;;16.10;94.30;;;;;;5093761;28;20043;-67
2021/07/01 11:05:57;;;;;;;2.78;1.63;;;16.10;94.20;;;;;;5092221;28;20103;-67
2021/07/01 11:08:34;;;;;;;1.52;1.40;;;16.10;94.00;;;;;;5093804;28;20027;-67
2021/07/01 11:11:17;;;;;;;2.55;2.05;;;16.10;94.00;;;;;;5093052;28;20035;-67
2021/07/01 11:14:07;;;;;;;1.60;1.50;;;16.00;94.00;;;;;;5093152;28;20023;-67
2021/07/01 11:16:41;;;;;;;1.60;1.50;;;15.90;93.80;;;;;;5091697;28;20097;-67
2021/07/01 11:19:09;;;;;;;1.45;1.38;;;15.70;93.80;;;;;;5093401;28;20038;-67
2021/07/01 11:21:35;;;;;;;1.80;1.30;;;15.60;93.80;;;;;;5093435;28;20060;-67
2021/07/01 11:24:13;;;;;;;1.17;1.13;;;15.50;94.00;;;;;;5093030;28;20059;-67
2021/07/01 11:26:40;;;;;;;1.52;1.10;;;15.40;93.60;;;;;;5092183;28;20028;-67
2021/07/01 11:29:08;;;;;;;11.85;2.60;;;15.20;93.70;;;;;;5092983;28;20036;-67
2021/07/01 11:31:35;;;;;;;2.25;1.60;;;15.20;93.80;;;;;;5092941;28;20105;-67
2021/07/01 11:34:01;;;;;;;1.98;1.85;;;15.10;93.80;;;;;;5092448;28;20361;-67
2021/07/01 11:36:27;;;;;;;3.40;2.03;;;15.10;93.80;;;;;;5091963;28;20028;-67
2021/07/01 11:39:12;;;;;;;1.85;1.70;;;15.10;94.00;;;;;;5091522;28;20028;-67
2021/07/01 11:41:40;;;;;;;2.60;2.40;;;15.10;94.10;;;;;;5092315;28;20028;-67
2021/07/01 11:44:08;;;;;;;2.15;1.80;;;15.30;94.10;;;;;;5069239;28;20028;-67
2021/07/01 11:46:34;;;;;;;2.97;1.85;;;15.50;94.10;;;;;;5090163;28;20039;-67
2021/07/01 11:49:04;;;;;;;2.33;1.85;;;15.70;94.10;;;;;;5074024;28;20032;-67
2021/07/01 11:51:31;;;;;;;1.73;1.58;;;15.80;94.10;;;;;;5092172;28;20108;-67
2021/07/01 11:53:57;;;;;;;1.83;1.70;;;15.90;93.90;;;;;;5091770;28;20028;-67
2021/07/01 11:56:23;;;;;;;2.63;1.40;;;15.90;93.80;;;;;;5091739;28;20490;-67
2021/07/01 11:58:49;;;;;;;1.67;1.58;;;15.80;93.80;;;;;;5091722;28;20126;-67
2021/07/01 12:01:16;;;;;;;1.50;1.40;;;15.80;93.80;;;;;;5082835;28;20051;-67
2021/07/01 12:03:45;;;;;;;1.85;1.65;;;15.60;93.60;;;;;;5092569;28;20025;-67
2021/07/01 12:06:23;;;;;;;1.80;1.60;;;15.40;93.70;;;;;;5084245;28;20029;-66
2021/07/01 12:08:49;;;;;;;3.13;1.38;;;15.30;93.90;;;;;;5081668;28;20039;-67
2021/07/01 12:11:14;;;;;;;1.50;1.40;;;15.30;94.00;;;;;;5090504;28;20360;-66
2021/07/01 12:13:40;;;;;;;1.77;1.67;;;15.20;93.90;;;;;;5088029;28;20154;-66
2021/07/01 12:16:14;;;;;;;1.95;1.80;;;15.10;93.90;;;;;;5090448;28;20036;-66
2021/07/01 12:18:55;;;;;;;1.73;1.63;;;15.10;94.00;;;;;;5084126;28;20024;-67
2021/07/01 12:21:31;;;;;;;1.88;1.77;;;15.10;94.00;;;;;;5073007;28;20487;-66
2021/07/01 12:23:59;;;;;;;1.90;1.80;;;15.10;94.10;;;;;;5085965;28;20165;-66
2021/07/01 12:26:34;;;;;;;2.50;2.30;;;15.30;94.10;;;;;;5090704;28;20500;-66
2021/07/01 12:29:02;;;;;;;1.92;1.83;;;15.40;93.90;;;;;;5090737;28;20085;-67
2021/07/01 12:31:28;;;;;;;2.03;1.92;;;15.40;93.90;;;;;;5091072;28;20480;-67
2021/07/01 12:33:58;;;;;;;3.53;2.10;;;15.40;93.80;;;;;;5091153;28;20111;-66
2021/07/01 12:36:28;;;;;;;2.13;1.92;;;15.40;93.70;;;;;;5090734;28;20510;-66
2021/07/01 12:39:12;;;;;;;2.08;1.90;;;15.40;93.60;;;;;;5092023;28;20026;-67
2021/07/01 12:41:42;;;;;;;1.83;1.58;;;15.40;93.60;;;;;;5071326;28;20507;-67
2021/07/01 12:44:17;;;;;;;2.00;1.80;;;15.50;93.60;;;;;;5086461;28;20023;-67
2021/07/01 12:46:46;;;;;;;1.85;1.73;;;15.60;93.50;;;;;;5077114;28;20047;-67
2021/07/01 12:49:22;;;;;;;1.60;1.50;;;15.70;93.40;;;;;;5071278;28;20032;-67
2021/07/01 12:51:53;;;;;;;2.78;1.83;;;15.70;93.30;;;;;;5078973;28;20484;-67